createdAt,value
2022-08-07T00:02:35.536Z,14.22
2022-08-07T00:04:01.199Z,14.25
2022-08-07T00:06:33.473Z,14.29
2022-08-07T00:09:17.054Z,14.29
2022-08-07T00:11:55.510Z,14.26
2022-08-07T00:14:31.462Z,14.25
2022-08-07T00:17:02.705Z,14.24
2022-08-07T00:20:00.259Z,14.16
2022-08-07T00:22:34.578Z,14.08
2022-08-07T00:25:07.384Z,14.02
2022-08-07T00:27:53.465Z,13.95
2022-08-07T00:30:27.590Z,13.84
2022-08-07T00:32:59.891Z,13.82
2022-08-07T00:35:30.042Z,13.72
2022-08-07T00:38:01.061Z,13.73
2022-08-07T00:40:40.079Z,13.78
2022-08-07T00:43:58.702Z,13.84
2022-08-07T00:46:00.302Z,13.75
2022-08-07T00:48:31.854Z,13.71
2022-08-07T00:51:01.077Z,13.77
2022-08-07T00:53:39.339Z,13.79
2022-08-07T00:56:15.683Z,13.28
2022-08-07T00:58:46.569Z,13.33
2022-08-07T01:01:15.143Z,13.43
2022-08-07T01:03:56.120Z,13.39
2022-08-07T01:06:30.027Z,13.50
2022-08-07T01:09:00.799Z,13.58
2022-08-07T01:12:23.740Z,13.55
2022-08-07T01:14:16.889Z,13.21
2022-08-07T01:16:46.854Z,13.30
2022-08-07T01:19:19.043Z,13.39
2022-08-07T01:21:48.309Z,13.52
2022-08-07T01:24:18.755Z,13.62
2022-08-07T01:26:51.640Z,13.45
2022-08-07T01:29:19.812Z,13.50
2022-08-07T01:31:48.635Z,13.55
2022-08-07T01:34:15.654Z,13.41
2022-08-07T01:36:44.108Z,13.47
2022-08-07T01:39:11.836Z,13.59
2022-08-07T01:42:07.134Z,13.66
2022-08-07T01:44:27.781Z,13.65
2022-08-07T01:46:54.662Z,13.69
2022-08-07T01:49:22.311Z,13.55
2022-08-07T01:52:04.170Z,13.55
2022-08-07T01:54:36.960Z,13.47
2022-08-07T01:57:24.119Z,13.38
2022-08-07T02:00:02.137Z,13.41
2022-08-07T02:03:15.952Z,13.47
2022-08-07T02:05:43.072Z,13.37
2022-08-07T02:08:19.234Z,13.34
2022-08-07T02:10:55.296Z,13.22
2022-08-07T02:13:58.245Z,13.10
2022-08-07T02:16:16.045Z,13.26
2022-08-07T02:18:47.279Z,13.32
2022-08-07T02:21:16.609Z,13.31
2022-08-07T02:23:45.065Z,13.35
2022-08-07T02:26:33.865Z,13.41
2022-08-07T02:29:03.146Z,13.28
2022-08-07T02:31:32.573Z,13.32
2022-08-07T02:34:03.274Z,13.39
2022-08-07T02:36:33.796Z,13.28
2022-08-07T02:39:09.441Z,13.33
2022-08-07T02:41:47.365Z,13.27
2022-08-07T02:44:21.432Z,13.32
2022-08-07T02:46:52.506Z,13.37
2022-08-07T02:49:56.183Z,13.03
2022-08-07T02:52:10.130Z,13.00
2022-08-07T02:54:42.763Z,13.17
2022-08-07T02:57:14.304Z,13.28
2022-08-07T02:59:45.660Z,13.41
2022-08-07T03:02:22.731Z,13.48
2022-08-07T03:04:51.847Z,13.71
2022-08-07T03:07:21.574Z,13.60
2022-08-07T03:10:08.928Z,13.68
2022-08-07T03:12:37.221Z,13.86
2022-08-07T03:15:07.802Z,14.04
2022-08-07T03:17:53.785Z,14.18
2022-08-07T03:20:22.165Z,14.29
2022-08-07T03:22:50.759Z,14.35
2022-08-07T03:25:21.156Z,14.38
2022-08-07T03:27:59.400Z,14.42
2022-08-07T03:30:37.476Z,14.43
2022-08-07T03:33:08.530Z,14.46
2022-08-07T03:35:50.037Z,14.47
2022-08-07T03:38:21.197Z,14.43
2022-08-07T03:40:57.727Z,14.48
2022-08-07T03:43:26.679Z,14.46
2022-08-07T03:46:00.135Z,14.44
2022-08-07T03:48:31.980Z,14.46
2022-08-07T03:51:02.003Z,14.43
2022-08-07T03:54:01.923Z,14.38
2022-08-07T03:56:32.719Z,14.44
2022-08-07T03:59:08.138Z,14.45
2022-08-07T04:01:43.091Z,14.44
2022-08-07T04:04:13.630Z,14.20
2022-08-07T04:06:45.385Z,14.21
2022-08-07T04:09:15.363Z,14.29
2022-08-07T04:12:28.182Z,14.32
2022-08-07T04:14:38.925Z,14.35
2022-08-07T04:17:20.478Z,14.44
2022-08-07T04:19:54.024Z,14.54
2022-08-07T04:22:28.685Z,13.75
2022-08-07T04:24:58.548Z,14.10
2022-08-07T04:27:26.667Z,14.21
2022-08-07T04:30:01.349Z,14.16
2022-08-07T04:32:34.364Z,14.16
2022-08-07T04:35:07.223Z,14.09
2022-08-07T04:37:52.705Z,14.07
2022-08-07T04:40:29.838Z,13.37
2022-08-07T04:43:02.085Z,13.02
2022-08-07T04:45:57.581Z,13.45
2022-08-07T04:48:40.548Z,13.72
2022-08-07T04:51:31.990Z,13.81
2022-08-07T04:54:36.881Z,13.83
2022-08-07T04:58:13.692Z,14.04
2022-08-07T05:00:14.556Z,14.45
2022-08-07T05:03:59.776Z,14.70
2022-08-07T05:06:20.094Z,14.84
2022-08-07T05:09:46.355Z,15.02
2022-08-07T05:12:26.794Z,14.97
2022-08-07T05:15:21.685Z,15.20
2022-08-07T05:17:57.062Z,15.23
2022-08-07T05:20:33.678Z,15.49
2022-08-07T05:23:07.121Z,15.47
2022-08-07T05:26:13.606Z,15.55
2022-08-07T05:28:34.498Z,15.72
2022-08-07T05:31:03.658Z,15.77
2022-08-07T05:33:35.574Z,15.82
2022-08-07T05:36:07.001Z,15.82
2022-08-07T05:39:01.140Z,15.89
2022-08-07T05:42:02.207Z,16.17
2022-08-07T05:44:17.231Z,16.29
2022-08-07T05:46:56.640Z,16.46
2022-08-07T05:49:23.775Z,16.57
2022-08-07T05:51:50.455Z,16.71
2022-08-07T05:54:30.091Z,17.04
2022-08-07T05:56:59.057Z,16.37
2022-08-07T05:59:27.393Z,17.11
2022-08-07T06:01:55.751Z,17.41
2022-08-07T06:04:30.032Z,17.85
2022-08-07T06:07:03.651Z,17.95
2022-08-07T06:10:03.833Z,19.34
2022-08-07T06:12:21.145Z,20.27
2022-08-07T06:15:05.614Z,21.15
2022-08-07T06:17:37.621Z,21.79
2022-08-07T06:20:06.117Z,21.57
2022-08-07T06:22:44.599Z,21.32
2022-08-07T06:25:28.854Z,21.67
2022-08-07T06:28:10.176Z,21.64
2022-08-07T06:30:45.873Z,22.46
2022-08-07T06:33:16.534Z,22.47
2022-08-07T06:35:48.148Z,22.31
2022-08-07T06:38:30.853Z,22.50
2022-08-07T06:41:01.124Z,23.23
2022-08-07T06:43:39.633Z,23.46
2022-08-07T06:46:13.445Z,23.90
2022-08-07T06:48:42.142Z,23.30
2022-08-07T06:51:31.341Z,22.08
2022-08-07T06:55:29.695Z,22.45
2022-08-07T06:56:54.292Z,21.79
2022-08-07T07:00:13.502Z,22.11
2022-08-07T07:02:48.223Z,21.34
2022-08-07T07:05:12.902Z,22.04
2022-08-07T07:07:59.982Z,20.52
2022-08-07T07:10:33.315Z,22.87
2022-08-07T07:13:10.026Z,22.80
2022-08-07T07:15:44.515Z,22.38
2022-08-07T07:18:47.059Z,22.84
2022-08-07T07:21:27.077Z,23.70
2022-08-07T07:24:12.668Z,24.29
2022-08-07T07:26:52.009Z,26.03
2022-08-07T07:29:55.757Z,26.50
2022-08-07T07:32:12.974Z,26.75
2022-08-07T07:34:45.969Z,25.67
2022-08-07T07:37:44.417Z,27.52
2022-08-07T07:40:10.174Z,29.74
2022-08-07T07:42:47.032Z,27.49
2022-08-07T07:45:24.511Z,28.74
2022-08-07T07:48:11.246Z,29.78
2022-08-07T07:50:40.318Z,30.30
2022-08-07T07:53:20.455Z,31.26
2022-08-07T07:55:57.884Z,30.35
2022-08-07T07:58:37.075Z,28.35
2022-08-07T08:02:01.737Z,30.05
2022-08-07T08:04:10.704Z,29.75
2022-08-07T08:06:51.148Z,27.67
2022-08-07T08:09:23.211Z,27.27
2022-08-07T08:12:01.871Z,26.53
2022-08-07T08:14:31.704Z,29.42
2022-08-07T08:17:55.676Z,29.35
2022-08-07T08:20:17.252Z,27.49
2022-08-07T08:23:01.718Z,28.07
2022-08-07T08:25:50.918Z,27.45
2022-08-07T08:28:23.974Z,25.75
2022-08-07T08:31:15.621Z,26.73
2022-08-07T08:33:49.330Z,27.18
2022-08-07T08:36:30.080Z,26.25
2022-08-07T08:39:02.160Z,29.05
2022-08-07T08:41:58.510Z,25.38
2022-08-07T08:44:44.343Z,28.29
2022-08-07T08:47:17.437Z,29.59
2022-08-07T08:50:05.148Z,28.83
2022-08-07T08:52:53.928Z,29.25
2022-08-07T08:55:55.429Z,26.28
2022-08-07T08:58:39.766Z,25.16
2022-08-07T09:01:29.813Z,25.13
2022-08-07T09:04:18.854Z,24.28
2022-08-07T09:07:03.342Z,25.93
2022-08-07T09:09:49.067Z,26.48
2022-08-07T09:13:01.504Z,26.80
2022-08-07T09:16:20.055Z,28.27
2022-08-07T09:18:47.317Z,28.65
2022-08-07T09:21:34.220Z,30.97
2022-08-07T09:24:30.559Z,28.81
2022-08-07T09:27:29.701Z,30.32
2022-08-07T09:30:09.347Z,26.95
2022-08-07T09:33:05.231Z,27.08
2022-08-07T09:36:09.651Z,29.52
2022-08-07T09:38:59.956Z,30.30
2022-08-07T09:41:58.555Z,26.61
2022-08-07T09:47:52.418Z,28.07
2022-08-07T09:48:06.324Z,29.57
2022-08-07T09:52:16.189Z,28.46
2022-08-07T09:54:08.252Z,26.63
2022-08-07T09:57:13.001Z,25.94
2022-08-07T10:00:14.553Z,25.70
2022-08-07T10:02:55.660Z,25.97
2022-08-07T10:05:58.223Z,27.63
2022-08-07T10:08:46.093Z,25.95
2022-08-07T10:12:02.433Z,27.07
2022-08-07T10:14:54.349Z,27.55
2022-08-07T10:18:00.309Z,27.98
2022-08-07T10:20:50.177Z,24.01
2022-08-07T10:24:06.480Z,26.31
2022-08-07T10:26:54.194Z,24.11
2022-08-07T10:29:58.585Z,24.78
2022-08-07T10:32:59.784Z,24.24
2022-08-07T10:36:11.420Z,26.19
2022-08-07T10:39:10.837Z,26.21
2022-08-07T10:41:53.281Z,27.27
2022-08-07T10:44:54.693Z,27.50
2022-08-07T10:47:52.545Z,25.70
2022-08-07T10:50:35.443Z,26.68
2022-08-07T10:53:27.581Z,26.02
2022-08-07T10:56:31.205Z,26.46
2022-08-07T10:59:47.589Z,25.64
2022-08-07T11:02:34.092Z,26.54
2022-08-07T11:05:13.700Z,23.71
2022-08-07T11:07:58.527Z,24.59
2022-08-07T11:10:39.777Z,24.86
2022-08-07T11:14:45.087Z,25.24
2022-08-07T11:16:30.815Z,22.69
2022-08-07T11:19:21.754Z,23.62
2022-08-07T11:22:26.593Z,24.02
2022-08-07T11:25:20.293Z,23.76
2022-08-07T11:28:08.624Z,24.12
2022-08-07T11:30:48.040Z,24.31
2022-08-07T11:33:59.450Z,23.21
2022-08-07T11:36:39.292Z,23.87
2022-08-07T11:39:10.071Z,22.04
2022-08-07T11:42:08.496Z,22.51
2022-08-07T11:45:05.461Z,23.83
2022-08-07T11:48:13.854Z,24.56
2022-08-07T11:50:59.565Z,24.23
2022-08-07T11:54:01.600Z,24.43
2022-08-07T11:56:56.387Z,22.53
2022-08-07T12:00:12.466Z,23.84
2022-08-07T12:03:41.403Z,24.03
2022-08-07T12:06:50.261Z,24.33
2022-08-07T12:09:35.505Z,23.67
2022-08-07T12:12:25.897Z,22.72
2022-08-07T12:15:17.043Z,22.99
2022-08-07T12:18:29.933Z,23.54
2022-08-07T12:22:35.657Z,22.27
2022-08-07T12:24:38.431Z,23.40
2022-08-07T12:27:16.183Z,23.47
2022-08-07T12:30:04.060Z,23.59
2022-08-07T12:32:42.093Z,23.41
2022-08-07T12:35:13.499Z,23.62
2022-08-07T12:38:09.784Z,23.83
2022-08-07T12:40:48.882Z,24.13
2022-08-07T12:44:03.011Z,24.73
2022-08-07T12:46:26.417Z,24.64
2022-08-07T12:49:51.048Z,22.41
2022-08-07T12:52:46.340Z,23.93
2022-08-07T12:55:40.726Z,24.82
2022-08-07T12:58:12.961Z,24.67
2022-08-07T13:01:00.083Z,23.97
2022-08-07T13:03:54.775Z,23.87
2022-08-07T13:06:58.873Z,24.58
2022-08-07T13:10:29.140Z,24.08
2022-08-07T13:13:10.931Z,23.70
2022-08-07T13:15:58.801Z,24.48
2022-08-07T13:18:57.095Z,23.26
2022-08-07T13:21:51.743Z,23.81
2022-08-07T13:24:35.296Z,24.99
2022-08-07T13:27:15.686Z,24.92
2022-08-07T13:30:03.591Z,23.84
2022-08-07T13:32:54.051Z,24.68
2022-08-07T13:36:00.436Z,24.40
2022-08-07T13:38:37.923Z,22.06
2022-08-07T13:41:25.601Z,23.15
2022-08-07T13:44:00.284Z,23.17
2022-08-07T13:46:36.559Z,24.05
2022-08-07T13:49:08.768Z,24.68
2022-08-07T13:52:22.661Z,25.20
2022-08-07T13:54:49.280Z,24.45
2022-08-07T13:57:32.049Z,23.50
2022-08-07T14:00:02.023Z,23.93
2022-08-07T14:02:49.500Z,24.11
2022-08-07T14:05:25.259Z,24.24
2022-08-07T14:08:06.100Z,24.13
2022-08-07T14:10:42.057Z,24.05
2022-08-07T14:13:33.639Z,23.84
2022-08-07T14:16:04.708Z,23.88
2022-08-07T14:18:50.003Z,23.89
2022-08-07T14:22:41.208Z,23.66
2022-08-07T14:24:28.079Z,23.37
2022-08-07T14:26:58.573Z,23.26
2022-08-07T14:30:07.446Z,23.98
2022-08-07T14:32:24.895Z,24.14
2022-08-07T14:34:53.380Z,24.36
2022-08-07T14:37:23.860Z,24.63
2022-08-07T14:43:57.075Z,24.48
2022-08-07T14:45:56.524Z,24.49
2022-08-07T14:48:28.809Z,24.85
2022-08-07T14:51:01.807Z,24.54
2022-08-07T14:54:08.981Z,24.02
2022-08-07T14:56:30.224Z,24.57
2022-08-07T14:59:02.685Z,24.53
2022-08-07T15:01:50.873Z,24.39
2022-08-07T15:04:21.771Z,23.30
2022-08-07T15:06:52.753Z,23.59
2022-08-07T15:09:59.529Z,23.37
2022-08-07T15:15:21.398Z,23.55
2022-08-07T15:18:33.847Z,23.84
2022-08-07T15:21:58.669Z,24.15
2022-08-07T15:25:13.685Z,24.16
2022-08-07T15:27:11.207Z,24.15
2022-08-07T15:30:04.494Z,24.07
2022-08-07T15:35:18.297Z,24.37
2022-08-07T15:38:18.370Z,24.72
2022-08-07T15:43:55.879Z,24.44
2022-08-07T15:46:31.804Z,23.29
2022-08-07T15:49:14.672Z,22.89
2022-08-07T15:54:39.249Z,23.24
2022-08-07T15:57:10.816Z,23.69
2022-08-07T15:59:59.450Z,23.80
2022-08-07T16:02:38.647Z,23.41
2022-08-07T16:05:20.116Z,23.00
2022-08-07T16:08:32.439Z,22.96
2022-08-07T16:10:43.081Z,23.01
2022-08-07T16:13:39.623Z,23.02
2022-08-07T16:16:48.850Z,23.54
2022-08-07T16:19:42.591Z,23.43
2022-08-07T16:22:55.253Z,22.96
2022-08-07T16:25:54.716Z,23.61
2022-08-07T16:29:18.384Z,23.37
2022-08-07T16:31:57.222Z,23.35
2022-08-07T16:34:49.950Z,23.69
2022-08-07T16:38:06.926Z,23.11
2022-08-07T16:40:57.224Z,23.49
2022-08-07T16:44:05.887Z,23.36
2022-08-07T16:47:07.897Z,23.63
2022-08-07T16:50:27.449Z,24.03
2022-08-07T16:53:14.696Z,22.77
2022-08-07T16:56:02.708Z,23.46
2022-08-07T16:59:10.581Z,23.70
2022-08-07T17:01:57.247Z,23.00
2022-08-07T17:04:36.922Z,22.90
2022-08-07T17:07:55.776Z,22.57
2022-08-07T17:10:32.327Z,22.96
2022-08-07T17:14:17.854Z,22.34
2022-08-07T17:16:56.071Z,22.30
2022-08-07T17:20:01.571Z,22.52
2022-08-07T17:22:42.464Z,22.30
2022-08-07T17:25:47.586Z,22.39
2022-08-07T17:28:19.496Z,22.06
2022-08-07T17:31:00.698Z,22.06
2022-08-07T17:34:15.570Z,22.50
2022-08-07T17:37:00.676Z,22.52
2022-08-07T17:39:57.883Z,22.16
2022-08-07T17:42:30.159Z,22.54
2022-08-07T17:44:58.948Z,22.70
2022-08-07T17:47:38.476Z,22.48
2022-08-07T17:50:46.821Z,21.98
2022-08-07T17:53:59.574Z,21.47
2022-08-07T17:56:26.145Z,21.44
2022-08-07T17:59:03.630Z,21.19
2022-08-07T18:02:29.359Z,21.30
2022-08-07T18:06:01.716Z,21.40
2022-08-07T18:09:01.405Z,21.18
2022-08-07T18:12:16.287Z,21.14
2022-08-07T18:15:33.042Z,21.13
2022-08-07T18:18:47.600Z,21.21
2022-08-07T18:21:38.185Z,21.16
2022-08-07T18:24:08.939Z,20.80
2022-08-07T18:26:57.215Z,20.76
2022-08-07T18:30:08.032Z,20.65
2022-08-07T18:32:32.766Z,20.66
2022-08-07T18:35:02.316Z,20.60
2022-08-07T18:38:54.851Z,20.48
2022-08-07T18:40:43.915Z,20.33
2022-08-07T18:43:43.394Z,20.30
2022-08-07T18:46:37.311Z,20.34
2022-08-07T18:50:32.459Z,20.28
2022-08-07T18:52:54.434Z,20.03
2022-08-07T18:56:04.131Z,19.83
2022-08-07T18:58:59.873Z,19.73
2022-08-07T19:02:32.263Z,19.53
2022-08-07T19:04:57.513Z,19.49
2022-08-07T19:08:05.684Z,19.42
2022-08-07T19:10:51.314Z,19.21
2022-08-07T19:13:51.038Z,19.30
2022-08-07T19:17:07.644Z,19.47
2022-08-07T19:20:28.799Z,19.53
2022-08-07T19:23:18.433Z,19.52
2022-08-07T19:26:23.328Z,19.31
2022-08-07T19:30:57.762Z,19.06
2022-08-07T19:32:08.294Z,18.95
2022-08-07T19:34:34.208Z,18.63
2022-08-07T19:37:09.909Z,18.54
2022-08-07T19:39:57.907Z,18.46
2022-08-07T19:42:31.575Z,18.52
2022-08-07T19:45:08.710Z,18.53
2022-08-07T19:47:42.138Z,18.33
2022-08-07T19:50:44.023Z,18.22
2022-08-07T19:52:58.441Z,18.10
2022-08-07T19:55:56.842Z,18.10
2022-08-07T19:58:16.184Z,18.13
2022-08-07T20:00:54.055Z,18.09
2022-08-07T20:03:34.891Z,17.99
2022-08-07T20:06:04.882Z,17.99
2022-08-07T20:08:38.920Z,18.03
2022-08-07T20:11:12.223Z,17.94
2022-08-07T20:13:46.536Z,17.87
2022-08-07T20:16:34.730Z,17.78
2022-08-07T20:19:06.024Z,17.64
2022-08-07T20:21:41.640Z,17.59
2022-08-07T20:24:24.103Z,17.54
2022-08-07T20:26:59.323Z,17.52
2022-08-07T20:29:47.950Z,17.49
2022-08-07T20:32:26.610Z,17.41
2022-08-07T20:35:11.298Z,17.39
2022-08-07T20:37:58.740Z,17.31
2022-08-07T20:40:32.017Z,17.25
2022-08-07T20:43:02.800Z,17.17
2022-08-07T20:46:28.293Z,17.11
2022-08-07T20:48:28.963Z,17.11
2022-08-07T20:50:58.997Z,17.09
2022-08-07T20:54:03.729Z,17.03
2022-08-07T20:56:16.048Z,16.94
2022-08-07T20:58:49.567Z,16.88
2022-08-07T21:01:20.870Z,16.78
2022-08-07T21:04:19.905Z,16.74
2022-08-07T21:06:42.403Z,16.70
2022-08-07T21:09:17.202Z,16.68
2022-08-07T21:11:51.057Z,16.61
2022-08-07T21:14:32.611Z,16.46
2022-08-07T21:18:00.362Z,16.28
2022-08-07T21:20:04.741Z,16.32
2022-08-07T21:22:51.271Z,16.31
2022-08-07T21:25:29.749Z,16.33
2022-08-07T21:28:48.174Z,16.31
2022-08-07T21:32:10.956Z,16.20
2022-08-07T21:34:48.687Z,16.14
2022-08-07T21:37:25.802Z,16.16
2022-08-07T21:40:08.708Z,16.15
2022-08-07T21:43:04.501Z,16.13
2022-08-07T21:46:05.428Z,16.06
2022-08-07T21:48:33.630Z,16.03
2022-08-07T21:51:51.039Z,15.95
2022-08-07T21:54:45.956Z,15.91
2022-08-07T21:57:44.988Z,15.93
2022-08-07T22:00:25.148Z,15.91
2022-08-07T22:03:30.620Z,15.85
2022-08-07T22:06:06.692Z,15.85
2022-08-07T22:08:46.110Z,15.82
2022-08-07T22:11:18.072Z,15.78
2022-08-07T22:13:53.052Z,15.75
2022-08-07T22:16:42.183Z,15.69
2022-08-07T22:19:23.689Z,15.66
2022-08-07T22:22:10.776Z,15.58
2022-08-07T22:25:10.758Z,15.53
2022-08-07T22:28:08.319Z,15.47
2022-08-07T22:30:53.103Z,15.41
2022-08-07T22:33:52.584Z,15.36
2022-08-07T22:36:46.391Z,15.30
2022-08-07T22:39:35.341Z,15.28
2022-08-07T22:42:25.911Z,15.27
2022-08-07T22:44:59.689Z,15.20
2022-08-07T22:48:31.352Z,15.17
2022-08-07T22:51:04.120Z,15.12
2022-08-07T22:54:05.196Z,15.05
2022-08-07T22:56:59.106Z,14.93
2022-08-07T22:59:46.968Z,14.94
2022-08-07T23:02:34.493Z,14.93
2022-08-07T23:06:10.293Z,14.88
2022-08-07T23:08:53.049Z,14.80
2022-08-07T23:11:22.773Z,14.72
2022-08-07T23:14:19.701Z,14.71
2022-08-07T23:17:15.916Z,14.54
2022-08-07T23:20:10.019Z,14.48
2022-08-07T23:22:49.613Z,14.45
2022-08-07T23:25:57.779Z,14.44
2022-08-07T23:28:48.812Z,14.42
2022-08-07T23:34:20.773Z,14.43
2022-08-07T23:35:01.867Z,14.32
2022-08-07T23:38:01.951Z,14.30
2022-08-07T23:40:49.401Z,14.29
2022-08-07T23:43:21.016Z,14.25
2022-08-07T23:46:03.019Z,14.20
2022-08-07T23:48:47.117Z,14.16
2022-08-07T23:53:05.707Z,14.13
2022-08-07T23:54:46.288Z,14.10
2022-08-07T23:57:36.303Z,13.99
